This is the latest recevied weather packets stored in our database for station/object LB9CG. If no packets are shown the sender has not sent any weather packets the latest 10 day(s).
| Time | Temp. | Humidity | Pressure | Rain* | Wind** | Luminosity | Snow |
|---|---|---|---|---|---|---|---|
| 1778248817 | 15° C | 44% | 1016.1 hPa | 0 mm | - | - | - |
| 1778247616 | 15° C | 42% | 1016.5 hPa | 0 mm | - | - | - |
| 1778245216 | 12.78° C | 47% | 1017 hPa | 0 mm | - | - | - |
| 1778244016 | 12.78° C | 47% | 1017 hPa | 0 mm | - | - | - |
| 1778241636 | 12.22° C | 49% | 1017.2 hPa | 0 mm | - | - | - |
| 1778239216 | 11.67° C | 51% | 1017.6 hPa | 0 mm | - | - | - |
| 1778238016 | 11.11° C | 49% | 1017.7 hPa | 0 mm | - | - | - |
| 1778235016 | 11.11° C | 50% | 1017.9 hPa | 0 mm | - | - | - |
| 1778233816 | 10.56° C | 50% | 1018.1 hPa | 0 mm | - | - | - |
| 1778229636 | 10° C | 53% | 1018.5 hPa | 0 mm | - | - | - |
| 1778222457 | 7.78° C | 67% | 1019.2 hPa | 0 mm | - | - | - |
| 1778221215 | 7.22° C | 70% | 1019.1 hPa | 0 mm | - | - | - |
| 1778217017 | 4.44° C | 91% | 1019.4 hPa | 0 mm | - | - | - |
| 1778215217 | 3.89° C | 94% | 1019.5 hPa | 0 mm | - | - | - |
| 1778214617 | 3.33° C | 94% | 1019.4 hPa | 0 mm | - | - | - |
| 1778212217 | 1.11° C | 97% | 1019.7 hPa | 0 mm | - | - | - |
| 1778211017 | 0° C | 98% | 1019.7 hPa | 0 mm | - | - | - |
| 1778209217 | -0.56° C | 97% | 1019.8 hPa | 0 mm | - | - | - |
| 1778201417 | -0.56° C | 97% | 1019.8 hPa | 0 mm | - | - | - |
| 1778194257 | 0.56° C | 95% | 1019.1 hPa | 0 mm | - | - | - |
| 1778189417 | 0.56° C | 93% | 1018.7 hPa | 0 mm | - | - | - |
| 1778188817 | 1.11° C | 93% | 1018.6 hPa | 0 mm | - | - | - |
| 1778188217 | 1.11° C | 92% | 1018.5 hPa | 0 mm | - | - | - |
| 1778185817 | 2.22° C | 90% | 1018.1 hPa | 0 mm | - | - | - |
| 1778183417 | 3.89° C | 82% | 1017.8 hPa | 0 mm | - | - | - |
* Rain latest hour (hover to see other rain measurements)
** Current wind speed in m/s (hover to see current wind gust speed)